createdAt,value
2022-12-08T00:00:26.346Z,4.64
2022-12-08T00:02:29.470Z,4.73
2022-12-08T00:04:53.544Z,4.81
2022-12-08T00:07:13.957Z,4.62
2022-12-08T00:09:22.300Z,4.73
2022-12-08T00:11:25.196Z,4.69
2022-12-08T00:13:28.099Z,4.63
2022-12-08T00:15:31.186Z,4.62
2022-12-08T00:17:34.127Z,4.54
2022-12-08T00:19:37.320Z,4.48
2022-12-08T00:21:40.596Z,4.50
2022-12-08T00:23:43.787Z,4.53
2022-12-08T00:25:48.380Z,4.59
2022-12-08T00:27:51.275Z,4.53
2022-12-08T00:29:54.351Z,4.58
2022-12-08T00:31:57.306Z,4.71
2022-12-08T00:34:00.613Z,4.77
2022-12-08T00:36:07.724Z,4.68
2022-12-08T00:38:10.780Z,4.73
2022-12-08T00:40:13.874Z,4.72
2022-12-08T00:42:17.387Z,4.72
2022-12-08T00:44:20.410Z,4.69
2022-12-08T00:46:23.386Z,4.82
2022-12-08T00:48:26.339Z,4.84
2022-12-08T00:50:29.297Z,4.82
2022-12-08T00:52:32.213Z,4.87
2022-12-08T00:54:35.555Z,4.94
2022-12-08T00:56:39.106Z,4.86
2022-12-08T00:58:43.525Z,4.73
2022-12-08T01:00:46.717Z,4.87
2022-12-08T01:02:49.985Z,4.90
2022-12-08T01:04:54.173Z,4.97
2022-12-08T01:06:57.181Z,4.77
2022-12-08T01:09:00.235Z,4.85
2022-12-08T01:11:04.619Z,4.92
2022-12-08T01:13:07.489Z,4.94
2022-12-08T01:15:12.252Z,5.00
2022-12-08T01:17:15.333Z,4.85
2022-12-08T01:19:18.465Z,4.93
2022-12-08T01:21:21.927Z,4.89
2022-12-08T01:23:24.899Z,4.98
2022-12-08T01:25:27.803Z,4.93
2022-12-08T01:27:30.788Z,4.87
2022-12-08T01:29:34.457Z,4.89
2022-12-08T01:31:39.467Z,4.89
2022-12-08T01:33:42.627Z,4.87
2022-12-08T01:35:45.479Z,4.92
2022-12-08T01:37:48.520Z,4.94
2022-12-08T01:39:51.351Z,5.03
2022-12-08T01:41:54.558Z,4.96
2022-12-08T01:44:00.099Z,4.95
2022-12-08T01:46:03.237Z,4.85
2022-12-08T01:48:12.239Z,4.94
2022-12-08T01:50:17.018Z,5.02
2022-12-08T01:52:24.978Z,5.06
2022-12-08T01:54:30.713Z,4.92
2022-12-08T01:56:37.734Z,4.96
2022-12-08T01:58:44.291Z,4.95
2022-12-08T02:00:48.845Z,4.88
2022-12-08T02:02:55.135Z,4.92
2022-12-08T02:04:59.599Z,4.85
2022-12-08T02:07:07.763Z,4.88
2022-12-08T02:09:11.184Z,4.71
2022-12-08T02:11:14.565Z,4.71
2022-12-08T02:13:19.274Z,4.87
2022-12-08T02:15:25.822Z,4.79
2022-12-08T02:17:41.551Z,4.76
2022-12-08T02:20:06.594Z,4.63
2022-12-08T02:22:12.300Z,4.72
2022-12-08T02:24:20.277Z,4.68
2022-12-08T02:27:04.185Z,4.74
2022-12-08T02:29:23.039Z,4.81
2022-12-08T02:31:34.778Z,4.67
2022-12-08T02:34:01.914Z,4.55
2022-12-08T02:36:08.478Z,4.65
2022-12-08T02:38:21.532Z,4.45
2022-12-08T02:40:27.253Z,4.47
2022-12-08T02:42:34.359Z,4.63
2022-12-08T02:44:41.164Z,4.65
2022-12-08T02:46:46.571Z,4.57
2022-12-08T02:48:49.997Z,4.66
2022-12-08T02:50:54.281Z,4.63
2022-12-08T02:52:57.339Z,4.54
2022-12-08T02:55:04.681Z,4.63
2022-12-08T02:57:18.145Z,4.57
2022-12-08T02:59:33.893Z,4.62
2022-12-08T03:01:49.940Z,4.75
2022-12-08T03:04:01.135Z,4.66
2022-12-08T03:06:12.997Z,4.81
2022-12-08T03:08:18.205Z,4.70
2022-12-08T03:10:27.129Z,4.75
2022-12-08T03:12:33.064Z,4.73
2022-12-08T03:14:36.104Z,4.72
2022-12-08T03:16:40.406Z,4.74
2022-12-08T03:18:49.492Z,4.79
2022-12-08T03:20:52.911Z,4.75
2022-12-08T03:22:59.934Z,4.62
2022-12-08T03:25:03.350Z,4.70
2022-12-08T03:27:09.860Z,4.82
2022-12-08T03:29:13.398Z,4.72
2022-12-08T03:31:18.236Z,4.82
2022-12-08T03:33:24.972Z,4.89
2022-12-08T03:35:30.960Z,4.84
2022-12-08T03:37:36.270Z,4.84
2022-12-08T03:39:40.509Z,4.86
2022-12-08T03:41:43.480Z,4.81
2022-12-08T03:43:47.071Z,4.84
2022-12-08T03:45:49.925Z,4.80
2022-12-08T03:47:53.175Z,4.73
2022-12-08T03:49:55.990Z,4.78
2022-12-08T03:51:58.865Z,4.76
2022-12-08T03:54:01.717Z,4.82
2022-12-08T03:56:07.778Z,4.83
2022-12-08T03:58:10.673Z,4.74
2022-12-08T04:00:17.356Z,4.92
2022-12-08T04:02:20.508Z,4.90
2022-12-08T04:04:23.603Z,4.85
2022-12-08T04:06:27.060Z,4.83
2022-12-08T04:08:30.133Z,4.81
2022-12-08T04:10:33.042Z,4.77
2022-12-08T04:12:37.465Z,4.73
2022-12-08T04:14:40.323Z,4.81
2022-12-08T04:16:43.179Z,4.84
2022-12-08T04:18:46.343Z,4.71
2022-12-08T04:20:49.256Z,4.84
2022-12-08T04:22:52.209Z,4.85
2022-12-08T04:24:55.465Z,4.77
2022-12-08T04:26:58.628Z,4.81
2022-12-08T04:29:02.854Z,4.96
2022-12-08T04:31:06.437Z,4.98
2022-12-08T04:33:09.506Z,4.84
2022-12-08T04:35:12.388Z,4.92
2022-12-08T04:37:15.298Z,4.82
2022-12-08T04:39:18.554Z,4.79
2022-12-08T04:41:21.381Z,4.76
2022-12-08T04:43:24.402Z,4.63
2022-12-08T04:45:36.180Z,4.70
2022-12-08T04:47:40.491Z,4.81
2022-12-08T04:49:43.359Z,4.89
2022-12-08T04:51:46.247Z,4.74
2022-12-08T04:53:49.463Z,4.80
2022-12-08T04:55:52.461Z,4.73
2022-12-08T04:57:55.523Z,4.75
2022-12-08T04:59:58.382Z,4.79
2022-12-08T05:02:03.185Z,4.79
2022-12-08T05:04:06.192Z,4.75
2022-12-08T05:06:10.622Z,4.72
2022-12-08T05:08:14.088Z,4.76
2022-12-08T05:10:17.220Z,4.66
2022-12-08T05:12:20.029Z,4.87
2022-12-08T05:14:22.946Z,4.63
2022-12-08T05:16:25.842Z,4.61
2022-12-08T05:18:30.342Z,4.52
2022-12-08T05:20:33.191Z,4.69
2022-12-08T05:22:36.099Z,4.58
2022-12-08T05:24:44.019Z,4.60
2022-12-08T05:26:50.090Z,4.73
2022-12-08T05:28:52.937Z,4.73
2022-12-08T05:30:55.978Z,4.65
2022-12-08T05:32:59.013Z,4.58
2022-12-08T05:35:03.679Z,4.57
2022-12-08T05:37:06.580Z,4.62
2022-12-08T05:39:10.670Z,4.57
2022-12-08T05:41:16.295Z,4.50
2022-12-08T05:43:19.206Z,4.61
2022-12-08T05:45:22.145Z,4.46
2022-12-08T05:47:26.147Z,4.51
2022-12-08T05:49:29.319Z,4.57
2022-12-08T05:51:34.290Z,4.66
2022-12-08T05:53:37.359Z,4.50
2022-12-08T05:55:40.259Z,4.51
2022-12-08T05:57:43.133Z,4.50
2022-12-08T05:59:46.110Z,4.43
2022-12-08T06:01:50.606Z,4.55
2022-12-08T06:03:53.819Z,4.38
2022-12-08T06:05:56.719Z,4.51
2022-12-08T06:08:01.163Z,4.54
2022-12-08T06:10:05.150Z,4.44
2022-12-08T06:12:08.314Z,4.53
2022-12-08T06:14:12.410Z,4.59
2022-12-08T06:16:15.449Z,4.51
2022-12-08T06:18:18.376Z,4.57
2022-12-08T06:20:21.619Z,4.45
2022-12-08T06:22:24.494Z,4.47
2022-12-08T06:24:28.840Z,4.56
2022-12-08T06:26:31.750Z,4.48
2022-12-08T06:28:35.888Z,4.49
2022-12-08T06:30:39.562Z,4.38
2022-12-08T06:32:42.520Z,4.36
2022-12-08T06:34:45.750Z,4.31
2022-12-08T06:36:48.916Z,4.44
2022-12-08T06:38:51.832Z,4.50
2022-12-08T06:40:57.129Z,4.52
2022-12-08T06:43:00.653Z,4.48
2022-12-08T06:45:03.828Z,4.50
2022-12-08T06:47:06.760Z,4.53
2022-12-08T06:49:10.173Z,4.54
2022-12-08T06:51:16.858Z,4.57
2022-12-08T06:53:19.979Z,4.62
2022-12-08T06:55:50.955Z,4.46
2022-12-08T06:57:47.277Z,4.58
2022-12-08T06:59:50.181Z,4.63
2022-12-08T07:01:53.231Z,4.69
2022-12-08T07:03:58.535Z,4.51
2022-12-08T07:06:04.121Z,4.68
2022-12-08T07:08:09.549Z,4.44
2022-12-08T07:10:12.607Z,4.56
2022-12-08T07:12:15.616Z,4.65
2022-12-08T07:14:23.616Z,4.69
2022-12-08T07:16:26.727Z,4.78
2022-12-08T07:18:30.121Z,4.74
2022-12-08T07:20:33.404Z,4.69
2022-12-08T07:22:36.763Z,4.81
2022-12-08T07:24:39.799Z,4.85
2022-12-08T07:26:42.936Z,4.86
2022-12-08T07:28:45.934Z,4.86
2022-12-08T07:30:50.503Z,4.88
2022-12-08T07:32:53.534Z,4.88
2022-12-08T07:34:56.520Z,4.71
2022-12-08T07:36:59.488Z,4.85
2022-12-08T07:39:02.372Z,4.70
2022-12-08T07:41:05.699Z,4.59
2022-12-08T07:43:08.555Z,4.61
2022-12-08T07:45:12.247Z,4.62
2022-12-08T07:47:17.373Z,4.59
2022-12-08T07:49:20.344Z,4.73
2022-12-08T07:51:24.973Z,4.73
2022-12-08T07:53:27.983Z,4.69
2022-12-08T07:55:31.006Z,4.73
2022-12-08T07:57:34.183Z,4.56
2022-12-08T07:59:37.492Z,4.72
2022-12-08T08:01:40.436Z,4.64
2022-12-08T08:03:45.128Z,4.64
2022-12-08T08:05:49.621Z,4.56
2022-12-08T08:07:52.838Z,4.61
2022-12-08T08:09:56.129Z,4.61
2022-12-08T08:12:22.656Z,4.70
2022-12-08T08:14:22.504Z,4.51
2022-12-08T08:16:26.109Z,4.53
2022-12-08T08:18:29.404Z,4.51
2022-12-08T08:20:33.785Z,4.48
2022-12-08T08:22:37.270Z,4.60
2022-12-08T08:24:44.701Z,4.61
2022-12-08T08:26:48.167Z,4.47
2022-12-08T08:28:51.744Z,4.59
2022-12-08T08:30:54.888Z,4.58
2022-12-08T08:32:58.085Z,4.58
2022-12-08T08:35:01.333Z,4.61
2022-12-08T08:37:05.881Z,4.47
2022-12-08T08:39:09.101Z,4.54
2022-12-08T08:41:12.445Z,4.48
2022-12-08T08:43:34.333Z,4.54
2022-12-08T08:45:39.201Z,4.62
2022-12-08T08:47:42.383Z,4.59
2022-12-08T08:49:45.261Z,4.63
2022-12-08T08:51:48.348Z,4.53
2022-12-08T08:53:52.735Z,4.47
2022-12-08T08:55:55.960Z,4.57
2022-12-08T08:57:58.833Z,4.49
2022-12-08T09:00:02.329Z,4.62
2022-12-08T09:02:05.577Z,4.54
2022-12-08T09:04:08.553Z,4.56
2022-12-08T09:06:11.821Z,4.54
2022-12-08T09:08:15.161Z,4.55
2022-12-08T09:10:19.807Z,4.61
2022-12-08T09:12:22.820Z,4.65
2022-12-08T09:14:25.942Z,4.49
2022-12-08T09:16:29.185Z,4.53
2022-12-08T09:18:32.525Z,4.59
2022-12-08T09:20:36.584Z,4.54
2022-12-08T09:22:39.461Z,4.24
2022-12-08T09:24:44.491Z,4.23
2022-12-08T09:26:49.196Z,4.27
2022-12-08T09:28:52.790Z,4.33
2022-12-08T09:30:55.770Z,4.41
2022-12-08T09:32:58.732Z,4.30
2022-12-08T09:35:01.729Z,4.52
2022-12-08T09:37:04.913Z,4.39
2022-12-08T09:39:08.106Z,4.40
2022-12-08T09:41:16.745Z,4.39
2022-12-08T09:43:43.541Z,4.40
2022-12-08T09:45:46.556Z,4.44
2022-12-08T09:47:59.358Z,4.37
2022-12-08T09:50:07.537Z,4.41
2022-12-08T09:52:17.194Z,4.53
2022-12-08T09:54:24.079Z,4.51
2022-12-08T09:56:30.117Z,4.48
2022-12-08T09:58:46.111Z,4.42
2022-12-08T10:00:49.228Z,4.28
2022-12-08T10:02:52.435Z,4.35
2022-12-08T10:04:57.113Z,4.42
2022-12-08T10:07:05.919Z,4.53
2022-12-08T10:09:22.696Z,4.32
2022-12-08T10:11:30.883Z,4.52
2022-12-08T10:13:39.410Z,4.65
2022-12-08T10:15:45.777Z,4.71
2022-12-08T10:17:52.023Z,4.52
2022-12-08T10:19:58.921Z,4.62
2022-12-08T10:22:02.568Z,4.44
2022-12-08T10:24:10.902Z,4.54
2022-12-08T10:26:16.037Z,4.42
2022-12-08T10:28:19.046Z,4.39
2022-12-08T10:30:23.570Z,4.42
2022-12-08T10:32:30.609Z,4.48
2022-12-08T10:34:33.492Z,4.58
2022-12-08T10:36:47.322Z,4.60
2022-12-08T10:38:51.826Z,4.43
2022-12-08T10:41:00.333Z,4.66
2022-12-08T10:43:05.987Z,4.56
2022-12-08T10:45:21.882Z,4.46
2022-12-08T10:47:28.158Z,4.36
2022-12-08T10:49:35.448Z,4.43
2022-12-08T10:51:40.771Z,4.46
2022-12-08T10:53:47.100Z,4.49
2022-12-08T10:55:52.860Z,4.44
2022-12-08T10:57:55.874Z,4.57
2022-12-08T10:59:58.863Z,4.54
2022-12-08T11:02:02.250Z,4.43
2022-12-08T11:04:13.603Z,4.59
2022-12-08T11:06:19.349Z,4.32
2022-12-08T11:08:22.363Z,4.44
2022-12-08T11:10:32.545Z,4.39
2022-12-08T11:12:36.688Z,4.39
2022-12-08T11:14:49.427Z,4.44
2022-12-08T11:16:54.237Z,4.24
2022-12-08T11:18:58.954Z,4.23
2022-12-08T11:21:11.579Z,4.32
2022-12-08T11:23:22.860Z,4.38
2022-12-08T11:25:26.970Z,4.37
2022-12-08T11:27:30.478Z,4.54
2022-12-08T11:29:34.705Z,4.47
2022-12-08T11:31:43.761Z,4.25
2022-12-08T11:33:47.673Z,4.09
2022-12-08T11:35:53.141Z,4.25
2022-12-08T11:38:19.774Z,4.37
2022-12-08T11:40:27.921Z,4.42
2022-12-08T11:42:34.235Z,4.44
2022-12-08T11:44:39.669Z,4.22
2022-12-08T11:46:47.695Z,4.39
2022-12-08T11:48:54.401Z,4.40
2022-12-08T11:51:02.659Z,4.41
2022-12-08T11:53:10.004Z,4.23
2022-12-08T11:55:25.871Z,4.43
2022-12-08T11:57:30.455Z,4.30
2022-12-08T11:59:35.783Z,4.18
2022-12-08T12:01:42.535Z,4.32
2022-12-08T12:03:48.987Z,4.19
2022-12-08T12:06:18.599Z,4.29
2022-12-08T12:08:41.441Z,4.33
2022-12-08T12:10:56.296Z,4.24
2022-12-08T12:13:10.360Z,4.25
2022-12-08T12:15:52.681Z,4.33
2022-12-08T12:17:58.859Z,4.34
2022-12-08T12:20:06.111Z,4.41
2022-12-08T12:22:15.459Z,4.41
2022-12-08T12:24:26.056Z,4.35
2022-12-08T12:26:35.189Z,4.34
2022-12-08T12:28:43.378Z,4.33
2022-12-08T12:30:57.339Z,4.30
2022-12-08T12:33:02.076Z,4.31
2022-12-08T12:35:06.022Z,4.35
2022-12-08T12:37:12.195Z,4.20
2022-12-08T12:39:17.143Z,4.32
2022-12-08T12:41:25.942Z,4.31
2022-12-08T12:43:33.626Z,4.35
2022-12-08T12:45:43.378Z,4.39
2022-12-08T12:47:54.338Z,4.34
2022-12-08T12:50:09.746Z,4.22
2022-12-08T12:52:38.795Z,3.98
2022-12-08T12:54:43.798Z,4.06
2022-12-08T12:56:55.968Z,3.92
2022-12-08T12:58:58.876Z,3.73
2022-12-08T13:01:37.076Z,3.74
2022-12-08T13:03:42.026Z,3.76
2022-12-08T13:05:50.283Z,3.75
2022-12-08T13:07:56.141Z,3.33
2022-12-08T13:10:02.504Z,3.50
2022-12-08T13:12:12.155Z,3.56
2022-12-08T13:14:28.741Z,3.50
2022-12-08T13:16:34.619Z,3.46
2022-12-08T13:18:39.421Z,3.13
2022-12-08T13:20:43.779Z,3.32
2022-12-08T13:22:50.103Z,3.04
2022-12-08T13:24:53.652Z,3.20
2022-12-08T13:27:35.587Z,3.11
2022-12-08T13:29:41.152Z,3.13
2022-12-08T13:31:50.582Z,3.09
2022-12-08T13:33:54.259Z,3.00
2022-12-08T13:36:10.245Z,2.99
2022-12-08T13:38:16.244Z,2.90
2022-12-08T13:40:22.627Z,2.86
2022-12-08T13:42:31.166Z,2.84
2022-12-08T13:45:18.423Z,2.73
2022-12-08T13:47:33.777Z,2.64
2022-12-08T13:59:28.122Z,2.93
2022-12-08T14:01:31.364Z,2.95
2022-12-08T14:04:04.655Z,2.98
2022-12-08T14:06:15.374Z,2.96
2022-12-08T14:08:57.104Z,2.98
2022-12-08T14:10:45.377Z,2.96
2022-12-08T14:12:49.885Z,2.91
2022-12-08T14:15:03.367Z,2.84
2022-12-08T14:17:09.398Z,2.97
2022-12-08T14:19:19.337Z,3.02
2022-12-08T14:21:22.641Z,3.04
2022-12-08T14:23:25.892Z,3.05
2022-12-08T14:25:29.591Z,3.01
2022-12-08T14:27:35.211Z,3.01
2022-12-08T14:29:43.991Z,3.06
2022-12-08T14:31:47.354Z,3.06
2022-12-08T14:33:54.859Z,3.10
2022-12-08T14:36:01.367Z,3.13
2022-12-08T14:38:05.875Z,3.11
2022-12-08T14:40:22.755Z,3.02
2022-12-08T14:42:28.001Z,3.02
2022-12-08T14:44:33.476Z,3.06
2022-12-08T14:46:36.697Z,3.15
2022-12-08T14:48:44.956Z,3.19
2022-12-08T14:50:58.244Z,3.24
2022-12-08T14:53:02.699Z,3.12
2022-12-08T14:55:08.646Z,3.18
2022-12-08T14:57:12.667Z,3.12
2022-12-08T14:59:20.467Z,3.17
2022-12-08T15:01:24.491Z,3.25
2022-12-08T15:03:28.889Z,3.26
2022-12-08T15:05:36.638Z,3.20
2022-12-08T15:07:48.962Z,3.28
2022-12-08T15:10:10.790Z,3.30
2022-12-08T15:12:27.359Z,3.21
2022-12-08T15:14:33.048Z,3.22
2022-12-08T15:16:40.934Z,3.29
2022-12-08T15:18:43.896Z,3.31
2022-12-08T15:20:48.584Z,3.29
2022-12-08T15:22:51.602Z,3.32
2022-12-08T15:24:56.357Z,3.37
2022-12-08T15:26:59.424Z,3.19
2022-12-08T15:29:11.584Z,3.32
2022-12-08T15:31:15.502Z,3.39
2022-12-08T15:33:18.803Z,3.44
2022-12-08T15:35:22.592Z,3.40
2022-12-08T15:37:28.188Z,3.46
2022-12-08T15:39:36.547Z,3.41
2022-12-08T15:41:40.789Z,3.48
2022-12-08T15:43:43.884Z,3.48
2022-12-08T15:45:57.891Z,3.47
2022-12-08T15:48:04.354Z,3.47
2022-12-08T15:50:09.199Z,3.57
2022-12-08T15:52:14.842Z,3.51
2022-12-08T15:54:17.778Z,3.42
2022-12-08T15:56:28.655Z,3.57
2022-12-08T16:00:57.234Z,3.60
2022-12-08T16:03:22.950Z,3.64
2022-12-08T16:05:44.236Z,3.71
2022-12-08T16:07:53.106Z,3.55
2022-12-08T16:10:00.890Z,3.62
2022-12-08T16:12:21.673Z,3.62
2022-12-08T16:15:23.811Z,3.68
2022-12-08T16:16:50.871Z,3.72
2022-12-08T16:18:53.760Z,3.78
2022-12-08T16:23:41.610Z,3.83
2022-12-08T16:26:16.443Z,3.86
2022-12-08T16:28:45.207Z,3.88
2022-12-08T16:30:34.786Z,3.83
2022-12-08T16:32:46.520Z,3.82
2022-12-08T16:34:50.139Z,3.83
2022-12-08T16:36:53.354Z,3.66
2022-12-08T16:38:56.355Z,3.67
2022-12-08T16:41:17.227Z,3.72
2022-12-08T16:43:21.860Z,3.78
2022-12-08T16:45:26.963Z,3.78
2022-12-08T16:47:33.388Z,3.79
2022-12-08T16:49:39.213Z,3.80
2022-12-08T16:51:47.840Z,3.72
2022-12-08T16:53:51.211Z,3.81
2022-12-08T16:55:54.110Z,3.71
2022-12-08T16:57:57.489Z,3.59
2022-12-08T17:00:03.809Z,3.66
2022-12-08T17:02:06.915Z,3.66
2022-12-08T17:06:34.302Z,3.66
2022-12-08T17:08:37.273Z,3.61
2022-12-08T17:10:41.627Z,3.51
2022-12-08T17:12:44.710Z,3.67
2022-12-08T17:14:48.032Z,3.75
2022-12-08T17:16:50.942Z,3.82
2022-12-08T17:18:54.735Z,3.77
2022-12-08T17:20:58.977Z,3.83
2022-12-08T17:23:01.864Z,3.86
2022-12-08T17:25:05.374Z,3.91
2022-12-08T17:27:08.241Z,3.85
2022-12-08T17:29:11.137Z,3.90
2022-12-08T17:31:16.026Z,3.87
2022-12-08T17:33:23.759Z,3.87
2022-12-08T17:35:29.648Z,3.88
2022-12-08T17:37:34.116Z,3.85
2022-12-08T17:39:37.998Z,3.87
2022-12-08T17:41:41.222Z,3.82
2022-12-08T17:43:44.117Z,3.78
2022-12-08T17:45:50.303Z,3.79
2022-12-08T17:47:53.416Z,3.79
2022-12-08T17:49:56.946Z,3.76
2022-12-08T17:52:01.380Z,3.84
2022-12-08T17:54:06.284Z,3.83
2022-12-08T17:56:18.233Z,3.77
2022-12-08T17:58:24.723Z,3.70
2022-12-08T18:00:27.811Z,3.75
2022-12-08T18:02:33.650Z,3.83
2022-12-08T18:04:36.667Z,3.68
2022-12-08T18:06:40.998Z,3.78
2022-12-08T18:08:44.242Z,3.81
2022-12-08T18:10:48.810Z,3.89
2022-12-08T18:12:51.706Z,3.89
2022-12-08T18:14:54.630Z,3.80
2022-12-08T18:16:57.968Z,3.84
2022-12-08T18:19:00.889Z,3.83
2022-12-08T18:21:03.829Z,3.88
2022-12-08T18:23:06.904Z,3.92
2022-12-08T18:25:11.146Z,3.95
2022-12-08T18:27:15.459Z,3.87
2022-12-08T18:29:19.938Z,3.86
2022-12-08T18:31:24.041Z,3.83
2022-12-08T18:33:27.284Z,3.77
2022-12-08T18:35:30.182Z,3.68
2022-12-08T18:37:33.192Z,3.75
2022-12-08T18:39:36.499Z,3.72
2022-12-08T18:41:39.668Z,3.80
2022-12-08T18:43:44.188Z,3.71
2022-12-08T18:45:47.246Z,3.86
2022-12-08T18:47:51.911Z,3.81
2022-12-08T18:49:56.569Z,3.85
2022-12-08T18:51:59.497Z,3.80
2022-12-08T18:54:02.601Z,3.91
2022-12-08T18:56:06.428Z,3.80
2022-12-08T18:58:10.866Z,3.79
2022-12-08T19:00:17.802Z,3.96
2022-12-08T19:02:21.036Z,3.92
2022-12-08T19:04:28.752Z,3.97
2022-12-08T19:06:32.800Z,4.02
2022-12-08T19:08:35.869Z,4.00
2022-12-08T19:10:39.265Z,3.96
2022-12-08T19:12:43.209Z,3.96
2022-12-08T19:14:46.079Z,4.01
2022-12-08T19:16:53.069Z,3.92
2022-12-08T19:18:55.987Z,3.96
2022-12-08T19:20:59.612Z,3.96
2022-12-08T19:23:02.490Z,3.93
2022-12-08T19:25:06.189Z,3.93
2022-12-08T19:27:10.946Z,4.00
2022-12-08T19:29:14.233Z,3.99
2022-12-08T19:31:17.568Z,3.96
2022-12-08T19:33:21.952Z,3.93
2022-12-08T19:35:24.946Z,3.96
2022-12-08T19:37:27.884Z,4.01
2022-12-08T19:39:48.707Z,4.02
2022-12-08T19:42:09.580Z,4.00
2022-12-08T19:44:36.012Z,4.00
2022-12-08T19:46:40.474Z,4.00
2022-12-08T19:48:45.516Z,3.98
2022-12-08T19:50:48.393Z,3.92
2022-12-08T19:52:54.048Z,3.89
2022-12-08T19:54:57.762Z,3.93
2022-12-08T19:57:00.739Z,3.83
2022-12-08T19:59:03.679Z,3.86
2022-12-08T20:01:06.811Z,3.92
2022-12-08T20:03:14.022Z,3.86
2022-12-08T20:05:18.380Z,3.89
2022-12-08T20:07:21.521Z,3.83
2022-12-08T20:09:25.407Z,3.92
2022-12-08T20:11:28.305Z,3.97
2022-12-08T20:13:45.581Z,4.01
2022-12-08T20:15:48.635Z,4.06
2022-12-08T20:17:54.343Z,4.07
2022-12-08T20:19:57.256Z,4.09
2022-12-08T20:22:01.766Z,4.10
2022-12-08T20:24:05.523Z,4.09
2022-12-08T20:26:11.941Z,4.14
2022-12-08T20:28:20.075Z,4.12
2022-12-08T20:30:23.088Z,4.10
2022-12-08T20:32:25.972Z,4.09
2022-12-08T20:34:30.416Z,4.06
2022-12-08T20:36:33.452Z,4.13
2022-12-08T20:38:37.770Z,4.21
2022-12-08T20:40:47.425Z,4.19
2022-12-08T20:42:54.726Z,4.21
2022-12-08T20:44:57.628Z,4.23
2022-12-08T20:47:00.640Z,4.24
2022-12-08T20:49:04.310Z,4.23
2022-12-08T20:51:10.385Z,4.24
2022-12-08T20:53:13.796Z,4.22
2022-12-08T20:55:20.678Z,4.21
2022-12-08T20:57:23.585Z,4.19
2022-12-08T20:59:26.984Z,4.12
2022-12-08T21:01:30.216Z,4.19
2022-12-08T21:03:36.345Z,4.09
2022-12-08T21:05:39.872Z,4.08
2022-12-08T21:07:43.280Z,4.11
2022-12-08T21:09:46.399Z,4.15
2022-12-08T21:11:51.032Z,4.13
2022-12-08T21:13:54.056Z,4.21
2022-12-08T21:15:57.425Z,4.22
2022-12-08T21:18:01.046Z,4.22
2022-12-08T21:20:06.869Z,4.21
2022-12-08T21:22:10.189Z,4.21
2022-12-08T21:24:13.270Z,4.05
2022-12-08T21:26:17.511Z,4.16
2022-12-08T21:28:23.791Z,4.19
2022-12-08T21:30:30.142Z,4.11
2022-12-08T21:32:39.036Z,4.06
2022-12-08T21:34:44.251Z,4.02
2022-12-08T21:36:47.276Z,3.92
2022-12-08T21:38:51.656Z,4.03
2022-12-08T21:40:54.579Z,3.89
2022-12-08T21:42:56.651Z,4.01
2022-12-08T21:45:00.975Z,3.95
2022-12-08T21:47:04.781Z,4.02
2022-12-08T21:49:08.965Z,4.06
2022-12-08T21:51:11.922Z,4.08
2022-12-08T21:53:15.095Z,4.14
2022-12-08T21:55:20.344Z,4.17
2022-12-08T21:57:24.539Z,4.08
2022-12-08T21:59:27.856Z,4.01
2022-12-08T22:01:33.309Z,4.15
2022-12-08T22:03:37.002Z,4.20
2022-12-08T22:05:40.216Z,4.13
2022-12-08T22:07:43.645Z,4.13
2022-12-08T22:09:47.340Z,4.06
2022-12-08T22:11:50.520Z,4.04
2022-12-08T22:13:54.822Z,4.13
2022-12-08T22:15:58.806Z,4.17
2022-12-08T22:18:03.737Z,4.19
2022-12-08T22:20:09.469Z,3.99
2022-12-08T22:22:15.171Z,4.09
2022-12-08T22:24:18.289Z,4.09
2022-12-08T22:26:21.196Z,4.20
2022-12-08T22:28:24.611Z,4.22
2022-12-08T22:30:28.032Z,4.24
2022-12-08T22:32:30.999Z,4.23
2022-12-08T22:34:35.590Z,4.25
2022-12-08T22:36:38.464Z,4.23
2022-12-08T22:38:41.507Z,4.25
2022-12-08T22:40:44.526Z,4.26
2022-12-08T22:42:47.744Z,4.27
2022-12-08T22:44:50.670Z,4.27
2022-12-08T22:46:53.678Z,4.23
2022-12-08T22:48:56.687Z,4.15
2022-12-08T22:51:01.520Z,4.14
2022-12-08T22:53:04.877Z,4.09
2022-12-08T22:55:08.871Z,4.23
2022-12-08T22:57:11.999Z,4.25
2022-12-08T22:59:15.099Z,4.26
2022-12-08T23:01:28.204Z,4.29
2022-12-08T23:03:31.874Z,4.28
2022-12-08T23:05:35.454Z,4.27
2022-12-08T23:07:42.987Z,4.28
2022-12-08T23:09:48.785Z,4.22
2022-12-08T23:11:52.096Z,4.28
2022-12-08T23:13:56.254Z,4.29
2022-12-08T23:15:59.245Z,4.12
2022-12-08T23:18:02.266Z,4.09
2022-12-08T23:20:06.280Z,4.22
2022-12-08T23:22:10.667Z,4.21
2022-12-08T23:24:15.474Z,4.14
2022-12-08T23:26:25.157Z,4.14
2022-12-08T23:28:28.490Z,4.15
2022-12-08T23:30:31.621Z,4.10
2022-12-08T23:32:34.719Z,4.04
2022-12-08T23:34:38.467Z,4.03
2022-12-08T23:36:42.878Z,4.05
2022-12-08T23:38:45.919Z,4.04
2022-12-08T23:40:50.569Z,3.99
2022-12-08T23:42:53.967Z,3.86
2022-12-08T23:44:57.095Z,3.87
2022-12-08T23:47:00.233Z,3.89
2022-12-08T23:49:03.474Z,3.86
2022-12-08T23:51:06.875Z,3.88
2022-12-08T23:53:10.032Z,3.88
2022-12-08T23:55:13.112Z,3.85
2022-12-08T23:57:17.392Z,3.75
2022-12-08T23:59:20.404Z,3.78
